Time;durP1;ratioP1;P1;durP2;ratioP2;P2;SDS_P1;SDS_P2;PMS_P1;PMS_P2;Temp;Humidity;BMP_temperature;BMP_pressure;BME280_temperature;BME280_humidity;BME280_pressure;Samples;Min_cycle;Max_cycle;Signal;HPM_P1;HPM_P2
2022/07/18 00:00:50;;;;;;;0.10;0.10;;;;;;;25.52;nan;95771.03;5009365;28;20201;-67
2022/07/18 00:03:17;;;;;;;0.10;0.10;;;;;;;24.77;nan;95777.34;5009229;28;20701;-70
2022/07/18 00:05:44;;;;;;;0.30;0.30;;;;;;;24.77;nan;95767.41;5009536;28;20201;-68
2022/07/18 00:08:11;;;;;;;0.20;0.20;;;;;;;24.66;nan;95771.53;5009451;28;20198;-68
2022/07/18 00:10:38;;;;;;;0.23;0.23;;;;;;;24.74;nan;95776.06;5009483;28;20703;-68
2022/07/18 00:13:06;;;;;;;0.23;0.23;;;;;;;25.04;nan;95776.84;5009182;28;20756;-67
2022/07/18 00:15:33;;;;;;;0.10;0.10;;;;;;;24.33;nan;95778.59;5009444;28;20541;-68
2022/07/18 00:18:00;;;;;;;0.60;0.37;;;;;;;25.19;nan;95775.50;5009542;28;20648;-67
2022/07/18 00:20:27;;;;;;;0.20;0.20;;;;;;;25.11;nan;95754.91;5009492;28;20288;-67
2022/07/18 00:22:53;;;;;;;0.20;0.20;;;;;;;25.08;nan;95767.84;5008834;28;20201;-67
2022/07/18 00:25:21;;;;;;;0.33;0.33;;;;;;;25.28;nan;95774.34;5009253;28;20322;-67
2022/07/18 00:27:48;;;;;;;0.30;0.30;;;;;;;24.86;nan;95770.81;5008853;28;20733;-69
2022/07/18 00:30:17;;;;;;;0.20;0.20;;;;;;;25.04;nan;95764.25;5009453;28;20212;-66
2022/07/18 00:32:43;;;;;;;0.83;0.83;;;;;;;25.10;nan;95759.47;5009581;28;20646;-68
2022/07/18 00:35:10;;;;;;;0.20;0.20;;;;;;;24.56;nan;95771.88;5009352;28;20675;-67
2022/07/18 00:37:37;;;;;;;0.37;0.37;;;;;;;24.93;nan;95771.09;5008935;28;20204;-66
2022/07/18 00:40:05;;;;;;;0.30;0.30;;;;;;;25.21;nan;95759.88;5009106;28;20202;-67
2022/07/18 00:42:32;;;;;;;0.20;0.20;;;;;;;25.06;nan;95753.19;5008231;28;20707;-69
2022/07/18 00:44:59;;;;;;;0.50;0.50;;;;;;;25.01;nan;95756.84;5008750;28;20316;-67
2022/07/18 00:47:26;;;;;;;0.30;0.30;;;;;;;24.53;nan;95772.53;5008948;28;20718;-66
2022/07/18 00:49:53;;;;;;;0.60;0.60;;;;;;;24.87;nan;95764.34;5009086;28;20197;-67
2022/07/18 00:52:20;;;;;;;0.20;0.20;;;;;;;24.91;nan;95778.66;5008895;28;20288;-67
2022/07/18 00:54:47;;;;;;;0.30;0.30;;;;;;;24.77;nan;95775.44;5008776;28;20649;-67
2022/07/18 00:57:14;;;;;;;0.60;0.60;;;;;;;24.98;nan;95778.19;5008811;28;20263;-66
2022/07/18 01:02:26;;;;;;;0.30;0.30;;;;;;;24.58;nan;95769.66;5008582;28;20197;-66
2022/07/18 01:04:54;;;;;;;0.20;0.20;;;;;;;24.17;nan;95776.75;5008534;28;20221;-66
2022/07/18 01:07:20;;;;;;;0.10;0.10;;;;;;;24.63;nan;95777.53;5008919;28;20193;-68
2022/07/18 01:09:48;;;;;;;0.87;0.73;;;;;;;24.47;nan;95781.84;5011221;28;20192;-66
2022/07/18 01:12:15;;;;;;;0.23;0.23;;;;;;;24.14;nan;95777.41;5012294;28;20644;-67
2022/07/18 01:14:43;;;;;;;0.37;0.37;;;;;;;24.01;nan;95747.03;5012554;28;20194;-69
2022/07/18 01:17:15;;;;;;;0.30;0.30;;;;;;;24.30;nan;95767.72;5012781;28;20202;-69
2022/07/18 01:19:44;;;;;;;0.20;0.20;;;;;;;23.79;nan;95763.28;5012791;28;20612;-67
2022/07/18 01:22:11;;;;;;;0.10;0.10;;;;;;;23.92;nan;95764.97;5012472;28;20227;-67
2022/07/18 01:24:40;;;;;;;0.20;0.20;;;;;;;23.56;nan;95753.84;5012029;28;20836;-66
2022/07/18 01:27:07;;;;;;;0.30;0.30;;;;;;;23.60;nan;95765.47;5010910;28;20230;-67
2022/07/18 01:29:34;;;;;;;0.20;0.20;;;;;;;23.74;nan;95771.47;5012010;28;20209;-67
2022/07/18 01:32:08;;;;;;;0.10;0.10;;;;;;;23.40;nan;95776.81;5012282;28;20196;-68
2022/07/18 01:34:35;;;;;;;0.20;0.20;;;;;;;23.74;nan;95766.13;5011606;28;20197;-67
2022/07/18 01:37:03;;;;;;;0.40;0.40;;;;;;;23.67;nan;95765.78;5012191;28;20216;-68
2022/07/18 01:39:31;;;;;;;0.20;0.20;;;;;;;22.75;nan;95766.97;5011725;28;20212;-67
2022/07/18 01:41:59;;;;;;;0.17;0.17;;;;;;;23.45;nan;95763.31;5010801;28;20584;-66
2022/07/18 01:44:28;;;;;;;0.10;0.10;;;;;;;23.82;nan;95759.94;5011312;28;20222;-68
2022/07/18 01:46:55;;;;;;;0.10;0.10;;;;;;;23.94;nan;95760.88;5010775;28;20694;-66
2022/07/18 01:49:22;;;;;;;0.37;0.37;;;;;;;23.58;nan;95763.13;5011567;28;20248;-67
2022/07/18 01:51:52;;;;;;;0.10;0.10;;;;;;;23.32;nan;95764.25;5011715;28;20765;-67
2022/07/18 01:54:24;;;;;;;0.20;0.20;;;;;;;23.35;nan;95763.59;5011318;28;20219;-67
2022/07/18 01:56:51;;;;;;;0.30;0.30;;;;;;;22.98;nan;95760.41;5026732;28;20209;-68
2022/07/18 01:59:18;;;;;;;0.33;0.33;;;;;;;22.95;nan;95755.69;5011590;28;20190;-68
2022/07/18 02:01:45;;;;;;;0.47;0.47;;;;;;;23.34;nan;95762.03;5011995;28;20292;-66
2022/07/18 02:04:12;;;;;;;0.33;0.33;;;;;;;23.85;nan;95751.28;5026131;28;20279;-66
2022/07/18 02:06:39;;;;;;;0.40;0.40;;;;;;;23.60;nan;95754.78;5011770;28;20197;-66
2022/07/18 02:09:07;;;;;;;0.20;0.20;;;;;;;22.82;nan;95755.81;5011767;28;20563;-66
2022/07/18 02:11:35;;;;;;;0.10;0.10;;;;;;;23.41;nan;95768.47;5011272;28;20681;-67
2022/07/18 02:14:04;;;;;;;0.30;0.30;;;;;;;23.65;nan;95757.31;5011305;28;20281;-66
2022/07/18 02:16:32;;;;;;;0.20;0.20;;;;;;;24.03;nan;95763.56;5011300;28;20222;-67
2022/07/18 02:18:59;;;;;;;0.40;0.40;;;;;;;23.80;nan;95770.19;5011350;28;20816;-67
2022/07/18 02:21:26;;;;;;;0.40;0.40;;;;;;;23.88;nan;95770.19;5010510;28;20198;-66
2022/07/18 02:23:54;;;;;;;0.83;0.83;;;;;;;23.86;nan;95768.91;5010968;28;20255;-67
2022/07/18 02:26:21;;;;;;;0.10;0.10;;;;;;;24.15;nan;95774.41;5011366;28;20324;-67
2022/07/18 02:28:48;;;;;;;0.53;0.40;;;;;;;24.09;nan;95772.97;5011149;28;20198;-67
2022/07/18 02:31:14;;;;;;;0.50;0.50;;;;;;;24.34;nan;95780.19;5010932;28;20263;-66
2022/07/18 02:33:41;;;;;;;0.10;0.10;;;;;;;24.48;nan;95783.44;5010992;28;20665;-66
2022/07/18 02:36:08;;;;;;;0.20;0.20;;;;;;;24.37;nan;95782.22;5010653;28;20190;-65
2022/07/18 02:38:35;;;;;;;0.20;0.20;;;;;;;24.37;nan;95776.84;5011041;28;20198;-66
2022/07/18 02:41:02;;;;;;;0.80;0.80;;;;;;;24.39;nan;95788.03;5010924;28;20795;-66
2022/07/18 02:43:29;;;;;;;0.10;0.10;;;;;;;24.22;nan;95789.97;5011050;28;20275;-67
2022/07/18 02:45:56;;;;;;;0.10;0.10;;;;;;;24.13;nan;95783.84;5010762;28;20202;-67
2022/07/18 02:48:23;;;;;;;0.43;0.43;;;;;;;24.12;nan;95796.47;5010943;28;20252;-67
2022/07/18 02:50:50;;;;;;;1.33;1.13;;;;;;;24.23;nan;95795.03;5010709;28;20200;-67
2022/07/18 02:53:19;;;;;;;0.10;0.10;;;;;;;24.21;nan;95802.59;5010267;28;20194;-65
2022/07/18 02:55:46;;;;;;;0.40;0.40;;;;;;;24.22;nan;95793.44;5010354;28;20194;-66
2022/07/18 02:58:13;;;;;;;0.30;0.30;;;;;;;24.20;nan;95790.28;5010636;28;20194;-66
2022/07/18 03:00:39;;;;;;;0.20;0.20;;;;;;;24.25;nan;95798.16;5010378;28;20706;-66
2022/07/18 03:03:06;;;;;;;0.10;0.10;;;;;;;24.21;nan;95791.88;5010427;28;20202;-66
2022/07/18 03:05:33;;;;;;;0.20;0.20;;;;;;;24.10;nan;95801.34;5010159;28;20243;-67
2022/07/18 03:08:00;;;;;;;16.77;0.87;;;;;;;23.95;nan;95804.50;5009977;28;20198;-66
2022/07/18 03:10:28;;;;;;;0.20;0.20;;;;;;;23.81;nan;95803.88;5008872;28;20200;-67
2022/07/18 03:12:54;;;;;;;0.30;0.30;;;;;;;23.79;nan;95808.78;5010455;28;20259;-65
2022/07/18 03:15:21;;;;;;;0.50;0.50;;;;;;;23.73;nan;95808.16;5009824;28;20194;-67
2022/07/18 03:17:48;;;;;;;0.20;0.20;;;;;;;23.19;nan;95803.38;5010134;28;20201;-65
2022/07/18 03:20:15;;;;;;;0.20;0.20;;;;;;;23.02;nan;95798.00;5010212;28;20206;-66
2022/07/18 03:22:42;;;;;;;0.77;0.53;;;;;;;23.43;nan;95811.75;5008457;28;20236;-67
2022/07/18 03:25:09;;;;;;;0.20;0.20;;;;;;;23.36;nan;95806.09;5009614;28;20226;-67
2022/07/18 03:27:41;;;;;;;2.47;1.53;;;;;;;23.61;nan;95809.88;5009705;28;20230;-67
2022/07/18 03:30:09;;;;;;;1.33;1.23;;;;;;;23.38;nan;95803.09;5010140;28;20236;-67
2022/07/18 03:32:35;;;;;;;0.30;0.30;;;;;;;23.49;nan;95810.50;5008946;28;20186;-67
2022/07/18 03:35:03;;;;;;;0.40;0.40;;;;;;;23.42;nan;95817.41;5009566;28;20186;-66
2022/07/18 03:37:29;;;;;;;0.20;0.20;;;;;;;23.44;nan;95815.22;5009770;28;20590;-66
2022/07/18 03:39:56;;;;;;;0.40;0.40;;;;;;;23.22;nan;95816.13;5009574;28;20196;-66
2022/07/18 03:42:23;;;;;;;0.93;0.50;;;;;;;23.40;nan;95820.41;5009799;28;20204;-67
2022/07/18 03:44:50;;;;;;;6.97;1.03;;;;;;;23.69;nan;95817.09;5009801;28;20229;-67
2022/07/18 03:47:17;;;;;;;0.30;0.30;;;;;;;23.22;nan;95816.13;5009436;28;20190;-67
2022/07/18 03:49:44;;;;;;;0.37;0.37;;;;;;;23.37;nan;95830.94;5008371;28;20194;-67
2022/07/18 03:52:11;;;;;;;0.47;0.47;;;;;;;23.17;nan;95823.50;5009385;28;20197;-67
2022/07/18 03:54:37;;;;;;;0.20;0.20;;;;;;;23.44;nan;95824.03;5009715;28;20559;-66
2022/07/18 03:57:04;;;;;;;0.60;0.60;;;;;;;23.47;nan;95819.94;5008925;28;20196;-67
2022/07/18 03:59:31;;;;;;;0.60;0.60;;;;;;;23.28;nan;95827.44;5009461;28;20197;-67
2022/07/18 04:01:58;;;;;;;0.10;0.10;;;;;;;23.07;nan;95833.38;5010025;28;20201;-70
2022/07/18 04:04:25;;;;;;;0.30;0.30;;;;;;;22.64;nan;95815.63;5009272;28;21012;-70
2022/07/18 04:06:52;;;;;;;0.27;0.27;;;;;;;22.66;nan;95832.91;5007665;28;20194;-71
2022/07/18 04:09:19;;;;;;;1.90;0.63;;;;;;;22.74;nan;95824.16;5009962;28;20194;-69
2022/07/18 04:11:46;;;;;;;0.27;0.27;;;;;;;22.74;nan;95812.69;5008864;28;20227;-73
2022/07/18 04:14:12;;;;;;;1.07;0.97;;;;;;;22.78;nan;95825.13;5008282;28;20200;-67
2022/07/18 04:16:39;;;;;;;0.80;0.80;;;;;;;22.48;nan;95827.81;5013587;28;20190;-68
2022/07/18 04:19:06;;;;;;;0.33;0.33;;;;;;;22.94;nan;95828.16;5011359;28;20437;-72
2022/07/18 04:21:33;;;;;;;0.17;0.17;;;;;;;22.69;nan;95826.97;5008348;28;20206;-70
2022/07/18 04:24:00;;;;;;;0.20;0.20;;;;;;;22.92;nan;95831.13;5008434;28;20204;-72
2022/07/18 04:26:27;;;;;;;0.60;0.60;;;;;;;23.20;nan;95825.53;5008078;28;20245;-70
2022/07/18 04:28:53;;;;;;;5.97;0.70;;;;;;;22.95;nan;95819.03;5008262;28;20182;-69
2022/07/18 04:31:20;;;;;;;1.27;1.03;;;;;;;23.17;nan;95804.78;5008278;28;20255;-72
2022/07/18 04:33:47;;;;;;;0.60;0.60;;;;;;;23.38;nan;95817.25;5007920;28;20229;-67
2022/07/18 04:36:14;;;;;;;0.20;0.20;;;;;;;23.21;nan;95833.25;5007676;28;20695;-67
2022/07/18 04:38:41;;;;;;;0.20;0.20;;;;;;;23.38;nan;95821.81;5008068;28;20294;-68
2022/07/18 04:41:08;;;;;;;1.13;1.00;;;;;;;23.67;nan;95813.94;5007927;28;20556;-69
2022/07/18 04:43:35;;;;;;;0.60;0.60;;;;;;;23.29;nan;95824.47;5008888;28;20444;-67
2022/07/18 04:46:02;;;;;;;2.03;0.97;;;;;;;23.35;nan;95811.75;5012114;28;20221;-70
2022/07/18 04:48:30;;;;;;;0.97;0.97;;;;;;;23.18;nan;95801.78;5013157;28;20708;-68
2022/07/18 04:50:59;;;;;;;0.23;0.23;;;;;;;23.03;nan;95811.03;5013343;28;20194;-71
2022/07/18 04:53:25;;;;;;;2.13;1.93;;;;;;;23.28;nan;95811.41;5011771;28;20209;-71
2022/07/18 04:55:52;;;;;;;8.87;1.30;;;;;;;23.44;nan;95815.22;5013150;28;20198;-70
2022/07/18 04:58:19;;;;;;;2.20;1.47;;;;;;;23.39;nan;95818.06;5013244;28;20190;-65
2022/07/18 05:00:46;;;;;;;0.70;0.70;;;;;;;23.68;nan;95810.19;5013194;28;20197;-72
2022/07/18 05:03:13;;;;;;;1.70;1.57;;;;;;;23.80;nan;95821.03;5012742;28;20198;-68
2022/07/18 05:05:40;;;;;;;1.07;1.07;;;;;;;23.53;nan;95816.00;5012707;28;20325;-73
2022/07/18 05:08:11;;;;;;;4.10;1.90;;;;;;;23.72;nan;95811.91;5012884;28;20197;-70
2022/07/18 05:10:38;;;;;;;1.27;1.23;;;;;;;23.53;nan;95807.97;5012848;28;20193;-72
2022/07/18 05:13:05;;;;;;;0.47;0.47;;;;;;;23.80;nan;95818.38;5012655;28;20406;-68
2022/07/18 05:15:32;;;;;;;0.30;0.30;;;;;;;22.99;nan;95815.44;5012906;28;20208;-67
2022/07/18 05:17:59;;;;;;;0.97;0.93;;;;;;;23.50;nan;95814.75;5012366;28;20202;-67
2022/07/18 05:20:26;;;;;;;12.93;1.40;;;;;;;23.19;nan;95807.94;5012862;28;20201;-70
2022/07/18 05:22:54;;;;;;;1.13;0.50;;;;;;;23.30;nan;95810.03;5012703;28;20198;-69
2022/07/18 05:25:22;;;;;;;0.10;0.10;;;;;;;23.47;nan;95814.56;5012658;28;20696;-67
2022/07/18 05:27:51;;;;;;;0.37;0.37;;;;;;;23.56;nan;95818.03;5012554;28;20253;-66
2022/07/18 05:30:19;;;;;;;7.93;0.70;;;;;;;23.70;nan;95818.69;5012879;28;20297;-73
2022/07/18 05:32:47;;;;;;;0.80;0.80;;;;;;;24.14;nan;95815.69;5012121;28;20247;-68
2022/07/18 05:35:14;;;;;;;2.20;1.27;;;;;;;23.47;nan;95819.94;5012414;28;20256;-64
2022/07/18 05:37:42;;;;;;;1.10;1.10;;;;;;;23.09;nan;95809.81;5012630;28;20202;-70
2022/07/18 05:40:12;;;;;;;0.43;0.43;;;;;;;23.41;nan;95821.97;5012314;28;20194;-69
2022/07/18 05:42:39;;;;;;;0.17;0.17;;;;;;;23.46;nan;95823.72;5012092;28;20606;-68
2022/07/18 05:45:23;;;;;;;0.30;0.30;;;;;;;23.96;nan;95808.72;5012127;28;20253;-69
2022/07/18 05:47:51;;;;;;;4.03;0.73;;;;;;;24.08;nan;95814.28;5012140;28;20220;-71
2022/07/18 05:50:18;;;;;;;0.63;0.63;;;;;;;24.49;nan;95819.81;5012226;28;20248;-70
2022/07/18 05:52:45;;;;;;;0.73;0.57;;;;;;;24.19;nan;95818.19;5011859;28;20672;-68
2022/07/18 05:55:12;;;;;;;0.47;0.47;;;;;;;24.18;nan;95803.22;5010183;28;20256;-69
2022/07/18 05:57:39;;;;;;;0.40;0.40;;;;;;;24.24;nan;95812.66;5011889;28;20200;-71
2022/07/18 06:00:09;;;;;;;0.20;0.20;;;;;;;24.93;nan;95805.94;5011930;28;20208;-71
2022/07/18 06:02:36;;;;;;;0.73;0.40;;;;;;;24.95;nan;95810.97;5011358;28;20692;-72
2022/07/18 06:05:06;;;;;;;0.20;0.20;;;;;;;24.86;nan;95804.88;5011705;28;20209;-74
2022/07/18 06:07:51;;;;;;;0.47;0.47;;;;;;;24.85;nan;95814.81;5010211;28;20202;-68
2022/07/18 06:10:18;;;;;;;0.70;0.70;;;;;;;25.24;nan;95805.59;5011424;28;20251;-67
2022/07/18 06:12:46;;;;;;;5.33;0.73;;;;;;;25.34;nan;95799.06;5010148;28;20654;-67
2022/07/18 06:15:14;;;;;;;0.40;0.30;;;;;;;25.44;nan;95794.13;5011497;28;20208;-71
2022/07/18 06:17:41;;;;;;;0.20;0.20;;;;;;;25.34;nan;95796.38;5011662;28;20236;-70
2022/07/18 06:20:08;;;;;;;0.30;0.30;;;;;;;25.02;nan;95805.88;5011860;28;20202;-72
2022/07/18 06:22:36;;;;;;;0.20;0.20;;;;;;;25.74;nan;95800.22;5011895;28;20279;-71
2022/07/18 06:25:04;;;;;;;0.67;0.60;;;;;;;25.62;nan;95802.84;5011722;28;20307;-69
2022/07/18 06:27:31;;;;;;;0.60;0.60;;;;;;;25.56;nan;95798.78;5010859;28;20225;-70
2022/07/18 06:29:59;;;;;;;0.57;0.50;;;;;;;25.62;nan;95798.25;5011217;28;20207;-71
2022/07/18 06:32:26;;;;;;;0.40;0.40;;;;;;;25.47;nan;95795.38;5011102;28;20206;-68
2022/07/18 06:34:53;;;;;;;0.10;0.10;;;;;;;25.74;nan;95801.00;5011160;28;20200;-69
2022/07/18 06:37:19;;;;;;;0.97;0.50;;;;;;;26.01;nan;95795.06;5011677;28;20272;-73
2022/07/18 06:39:46;;;;;;;0.20;0.20;;;;;;;25.69;nan;95795.81;5011491;28;20202;-70
2022/07/18 06:42:13;;;;;;;0.20;0.20;;;;;;;26.00;nan;95784.66;5011011;28;20190;-70
2022/07/18 06:44:41;;;;;;;0.20;0.20;;;;;;;25.67;nan;95778.47;5009746;28;20669;-69
2022/07/18 06:47:08;;;;;;;0.73;0.73;;;;;;;25.97;nan;95787.97;5011076;28;20239;-69
2022/07/18 06:49:35;;;;;;;0.10;0.10;;;;;;;26.34;nan;95775.47;5010929;28;20201;-69
2022/07/18 06:52:02;;;;;;;0.10;0.10;;;;;;;26.58;nan;95778.97;5011148;28;20194;-67
2022/07/18 06:54:33;;;;;;;0.50;0.50;;;;;;;25.83;nan;95776.75;5010874;28;20298;-68
2022/07/18 06:56:59;;;;;;;0.10;0.10;;;;;;;26.70;nan;95775.50;5010505;28;20196;-68
2022/07/18 06:59:26;;;;;;;4.33;0.93;;;;;;;26.00;nan;95773.91;5010678;28;20185;-65
2022/07/18 07:01:53;;;;;;;0.37;0.37;;;;;;;26.72;nan;95770.59;5010528;28;20190;-66
2022/07/18 07:04:20;;;;;;;0.20;0.20;;;;;;;26.52;nan;95772.22;5010334;28;20234;-68
2022/07/18 07:06:47;;;;;;;0.47;0.40;;;;;;;26.71;nan;95766.34;5010049;28;20932;-68
2022/07/18 07:09:17;;;;;;;0.20;0.20;;;;;;;26.63;nan;95762.63;5010202;28;20234;-67
2022/07/18 07:11:44;;;;;;;0.83;0.60;;;;;;;26.79;nan;95776.97;5010159;28;20553;-70
2022/07/18 07:14:11;;;;;;;2.10;2.00;;;;;;;26.94;nan;95762.84;5010034;28;20189;-70
2022/07/18 07:16:38;;;;;;;1.57;1.23;;;;;;;27.48;nan;95766.03;5009298;28;20205;-72
2022/07/18 07:19:05;;;;;;;2.43;2.07;;;;;;;27.51;nan;95769.94;5010436;28;20268;-71
2022/07/18 07:21:32;;;;;;;0.87;0.73;;;;;;;27.36;nan;95767.97;5010212;28;20205;-65
2022/07/18 07:23:59;;;;;;;0.30;0.30;;;;;;;27.14;nan;95755.75;5010337;28;20703;-72
2022/07/18 07:26:26;;;;;;;0.40;0.40;;;;;;;27.71;nan;95763.59;5008246;28;20403;-71
2022/07/18 07:28:53;;;;;;;1.43;0.67;;;;;;;27.45;nan;95766.72;5009337;28;20197;-70
2022/07/18 07:31:20;;;;;;;0.73;0.50;;;;;;;27.58;nan;95770.16;5009552;28;20226;-74
2022/07/18 07:33:47;;;;;;;1.03;0.93;;;;;;;27.73;nan;95766.72;5009531;28;20200;-74
2022/07/18 07:36:14;;;;;;;4.70;3.93;;;;;;;27.88;nan;95779.47;5009220;28;20198;-72
2022/07/18 07:38:41;;;;;;;0.50;0.50;;;;;;;27.91;nan;95782.25;5008355;28;20702;-70
2022/07/18 07:41:08;;;;;;;0.27;0.27;;;;;;;27.78;nan;95777.25;5009486;28;20191;-68
2022/07/18 07:43:38;;;;;;;0.50;0.50;;;;;;;27.94;nan;95773.50;5009489;28;20208;-73
2022/07/18 07:46:05;;;;;;;2.30;2.10;;;;;;;27.59;nan;95777.13;5009767;28;20704;-74
2022/07/18 07:48:32;;;;;;;0.30;0.30;;;;;;;27.66;nan;95772.69;5009858;28;20711;-74
2022/07/18 07:50:59;;;;;;;0.30;0.30;;;;;;;27.31;nan;95768.22;5008945;28;20200;-70
2022/07/18 07:53:26;;;;;;;0.53;0.53;;;;;;;27.55;nan;95778.91;5009385;28;20601;-72
2022/07/18 07:55:53;;;;;;;0.83;0.60;;;;;;;27.49;nan;95777.59;5009456;28;20194;-71
2022/07/18 07:58:20;;;;;;;0.30;0.30;;;;;;;27.59;nan;95775.19;5009636;28;20198;-70
2022/07/18 08:00:47;;;;;;;0.30;0.30;;;;;;;28.03;nan;95759.88;5011512;28;20198;-73
2022/07/18 08:03:14;;;;;;;0.87;0.63;;;;;;;28.01;nan;95777.53;5010356;28;20586;-70
2022/07/18 08:05:47;;;;;;;0.30;0.30;;;;;;;27.44;nan;95761.66;5009708;28;20300;-72
2022/07/18 08:08:16;;;;;;;0.33;0.30;;;;;;;27.54;nan;95774.63;5009457;28;20201;-69
2022/07/18 08:10:43;;;;;;;0.20;0.20;;;;;;;27.17;nan;95778.53;5009204;28;20204;-72
2022/07/18 08:13:12;;;;;;;0.63;0.63;;;;;;;27.23;nan;95769.06;5009089;28;20605;-71
2022/07/18 08:15:40;;;;;;;0.20;0.20;;;;;;;27.79;nan;95773.44;5009250;28;20277;-70
2022/07/18 08:18:07;;;;;;;0.33;0.33;;;;;;;28.01;nan;95782.91;5008953;28;20202;-72
2022/07/18 08:20:34;;;;;;;1.13;0.57;;;;;;;28.22;nan;95773.47;5008910;28;20251;-70
2022/07/18 08:23:08;;;;;;;0.40;0.40;;;;;;;28.42;nan;95772.47;5009474;28;20197;-72
2022/07/18 08:25:38;;;;;;;0.93;0.93;;;;;;;28.13;nan;95775.56;5009084;28;20232;-77
2022/07/18 08:28:06;;;;;;;0.63;0.63;;;;;;;27.81;nan;95779.25;5008977;28;20557;-76
2022/07/18 08:30:34;;;;;;;6.23;0.60;;;;;;;28.07;nan;95776.13;5007767;28;20201;-72
2022/07/18 08:33:01;;;;;;;0.70;0.70;;;;;;;28.37;nan;95775.41;5009366;28;20202;-73
2022/07/18 08:35:29;;;;;;;0.10;0.10;;;;;;;27.73;nan;95774.81;5009163;28;20209;-70
2022/07/18 08:37:56;;;;;;;0.20;0.20;;;;;;;27.81;nan;95768.47;5009320;28;20201;-70
2022/07/18 08:40:24;;;;;;;0.20;0.20;;;;;;;27.86;nan;95776.34;5009130;28;20279;-70
2022/07/18 08:42:53;;;;;;;0.10;0.10;;;;;;;28.11;nan;95771.63;5009484;28;20190;-71
2022/07/18 08:45:42;;;;;;;0.10;0.10;;;;;;;28.04;nan;95776.84;5008866;28;20301;-70
2022/07/18 08:48:12;;;;;;;1.60;1.13;;;;;;;28.52;nan;95777.34;5009468;28;20572;-70
2022/07/18 08:50:44;;;;;;;0.23;0.23;;;;;;;28.84;nan;95765.44;5009260;28;20205;-69
2022/07/18 08:53:12;;;;;;;0.20;0.20;;;;;;;29.21;nan;95765.91;5007655;28;20190;-72
2022/07/18 08:55:40;;;;;;;0.40;0.37;;;;;;;29.10;nan;95770.25;5007662;28;20206;-69
2022/07/18 08:58:07;;;;;;;0.10;0.10;;;;;;;29.26;nan;95762.94;5008254;28;20760;-71
2022/07/18 09:00:53;;;;;;;0.17;0.17;;;;;;;29.54;nan;95768.16;5008029;28;20216;-66
2022/07/18 09:03:20;;;;;;;0.20;0.20;;;;;;;29.44;nan;95766.00;5008480;28;20190;-72
2022/07/18 09:06:03;;;;;;;0.20;0.20;;;;;;;28.95;nan;95768.38;5008387;28;20225;-67
2022/07/18 09:08:31;;;;;;;2.67;2.30;;;;;;;28.63;nan;95767.59;5008301;28;20189;-69
2022/07/18 09:11:04;;;;;;;0.30;0.30;;;;;;;28.92;nan;95740.16;5008430;28;20193;-66
2022/07/18 09:13:54;;;;;;;0.27;0.27;;;;;;;29.14;nan;95744.16;5008448;28;20269;-68
2022/07/18 09:16:21;;;;;;;0.40;0.40;;;;;;;28.91;nan;95757.50;5008421;28;20542;-67
2022/07/18 09:18:48;;;;;;;0.30;0.30;;;;;;;29.72;nan;95753.13;5008667;28;20591;-66
2022/07/18 09:21:18;;;;;;;0.30;0.30;;;;;;;29.43;nan;95761.75;5008493;28;20255;-67
2022/07/18 09:23:50;;;;;;;0.30;0.30;;;;;;;30.17;nan;95764.00;5008071;28;20209;-68
2022/07/18 09:26:45;;;;;;;0.40;0.40;;;;;;;30.10;nan;95758.47;5008253;28;20233;-67
2022/07/18 09:29:16;;;;;;;0.30;0.30;;;;;;;30.23;nan;95757.19;5009405;28;20210;-67
2022/07/18 09:31:55;;;;;;;0.20;0.20;;;;;;;30.12;nan;95739.97;5012452;28;20204;-67
2022/07/18 09:34:52;;;;;;;0.10;0.10;;;;;;;29.59;nan;95755.16;5025629;28;20197;-66
2022/07/18 09:37:24;;;;;;;0.10;0.10;;;;;;;29.39;nan;95763.59;5033182;28;20582;-61
2022/07/18 09:40:13;;;;;;;0.33;0.33;;;;;;;29.11;nan;95755.66;5031588;28;20205;-65
2022/07/18 09:42:50;;;;;;;0.30;0.30;;;;;;;29.03;nan;95753.91;5029520;28;20584;-67
2022/07/18 09:45:25;;;;;;;0.30;0.30;;;;;;;29.67;nan;95751.44;5030217;28;20681;-68
2022/07/18 09:47:57;;;;;;;0.40;0.40;;;;;;;29.80;nan;95744.00;5030470;28;20216;-68
2022/07/18 09:50:38;;;;;;;0.13;0.13;;;;;;;30.12;nan;95742.69;5028984;28;20200;-68
2022/07/18 09:53:19;;;;;;;0.10;0.10;;;;;;;30.30;nan;95741.09;5028850;28;20205;-67
2022/07/18 09:56:12;;;;;;;0.50;0.50;;;;;;;30.29;nan;95741.47;5026954;28;20193;-67
2022/07/18 09:58:54;;;;;;;0.30;0.30;;;;;;;30.77;nan;95744.19;5030569;28;20199;-67
2022/07/18 10:01:22;;;;;;;0.20;0.20;;;;;;;30.92;nan;95725.47;5028684;28;20197;-66
2022/07/18 10:03:50;;;;;;;0.53;0.53;;;;;;;30.50;nan;95734.47;5028091;28;20193;-66
2022/07/18 10:06:18;;;;;;;0.47;0.47;;;;;;;31.02;nan;95741.13;5030818;28;20667;-67
2022/07/18 10:08:45;;;;;;;0.43;0.43;;;;;;;30.71;nan;95739.47;5029982;28;20214;-66
2022/07/18 10:11:12;;;;;;;0.20;0.20;;;;;;;30.46;nan;95733.63;5031357;28;20197;-67
2022/07/18 10:13:39;;;;;;;0.67;0.67;;;;;;;30.46;nan;95739.06;5029493;28;20194;-65
2022/07/18 10:16:06;;;;;;;0.30;0.30;;;;;;;30.94;nan;95731.31;5030905;28;20197;-66
2022/07/18 10:18:36;;;;;;;0.40;0.40;;;;;;;30.86;nan;95725.81;5030638;28;20193;-67
2022/07/18 10:21:09;;;;;;;0.63;0.63;;;;;;;31.24;nan;95721.31;5031385;28;20263;-67
2022/07/18 10:23:42;;;;;;;0.50;0.50;;;;;;;31.32;nan;95720.25;5031560;28;20584;-67
2022/07/18 10:26:15;;;;;;;0.40;0.40;;;;;;;31.23;nan;95717.03;5030556;28;20217;-67
2022/07/18 10:29:00;;;;;;;0.30;0.30;;;;;;;31.57;nan;95716.72;5030982;28;20670;-69
2022/07/18 10:31:34;;;;;;;0.30;0.30;;;;;;;31.13;nan;95712.25;5029891;28;20193;-68
2022/07/18 10:34:08;;;;;;;0.60;0.40;;;;;;;31.43;nan;95704.94;5028180;28;20189;-69
2022/07/18 10:36:36;;;;;;;0.40;0.40;;;;;;;31.16;nan;95700.69;5029701;28;20193;-67
2022/07/18 10:39:20;;;;;;;0.30;0.30;;;;;;;31.56;nan;95703.53;5028952;28;20190;-67
2022/07/18 10:41:47;;;;;;;0.20;0.20;;;;;;;32.07;nan;95701.81;5028098;28;20196;-68
2022/07/18 10:44:29;;;;;;;0.73;0.73;;;;;;;32.53;nan;95692.19;5030338;28;20683;-67
2022/07/18 10:47:17;;;;;;;0.20;0.20;;;;;;;32.22;nan;95692.66;5027812;28;20298;-68
2022/07/18 10:49:47;;;;;;;0.30;0.30;;;;;;;32.21;nan;95691.09;5029526;28;20209;-68
2022/07/18 10:52:26;;;;;;;0.20;0.20;;;;;;;32.28;nan;95690.38;5030176;28;20204;-65
2022/07/18 10:55:18;;;;;;;0.37;0.33;;;;;;;31.49;nan;95692.63;5028473;28;20212;-67
2022/07/18 10:57:49;;;;;;;0.77;0.77;;;;;;;31.88;nan;95688.41;5028542;28;20696;-68
2022/07/18 11:00:33;;;;;;;0.30;0.30;;;;;;;32.26;nan;95693.44;5028924;28;20193;-70
2022/07/18 11:03:00;;;;;;;0.20;0.20;;;;;;;32.99;nan;95681.66;5026880;28;20216;-68
2022/07/18 11:05:26;;;;;;;1.00;0.97;;;;;;;32.64;nan;95684.91;5030009;28;20211;-68
2022/07/18 11:07:59;;;;;;;1.00;1.00;;;;;;;32.32;nan;95681.09;5028647;28;20344;-68
2022/07/18 11:10:41;;;;;;;1.40;0.93;;;;;;;33.06;nan;95681.69;5029850;28;20189;-65
2022/07/18 11:16:05;;;;;;;0.67;0.60;;;;;;;32.76;nan;95683.78;5022468;28;20241;-68
2022/07/18 11:18:56;;;;;;;0.30;0.30;;;;;;;32.85;nan;95673.38;5029063;28;20208;-67
2022/07/18 11:21:33;;;;;;;0.37;0.37;;;;;;;33.54;nan;95679.63;5026297;28;20201;-67
2022/07/18 11:24:10;;;;;;;0.37;0.30;;;;;;;33.82;nan;95668.81;5027587;28;20201;-65
2022/07/18 11:26:43;;;;;;;0.60;0.30;;;;;;;33.75;nan;95668.78;5028709;28;20232;-68
2022/07/18 11:29:12;;;;;;;0.20;0.20;;;;;;;33.93;nan;95669.59;5021353;28;20214;-65
2022/07/18 11:31:47;;;;;;;0.30;0.30;;;;;;;32.18;nan;95669.34;5008419;28;20664;-68
2022/07/18 11:34:15;;;;;;;0.70;0.40;;;;;;;33.01;nan;95667.69;5008118;28;20201;-67
2022/07/18 11:36:44;;;;;;;0.20;0.20;;;;;;;33.25;nan;95656.19;5007749;28;20714;-67
2022/07/18 11:39:12;;;;;;;7.30;0.77;;;;;;;33.36;nan;95656.97;5009079;28;20931;-67
2022/07/18 11:41:42;;;;;;;0.30;0.30;;;;;;;32.99;nan;95653.72;5007671;28;20204;-68
2022/07/18 11:44:17;;;;;;;0.50;0.43;;;;;;;34.07;nan;95653.31;5008698;28;20204;-69
2022/07/18 11:46:44;;;;;;;0.47;0.47;;;;;;;34.12;nan;95644.81;5008830;28;20209;-67
2022/07/18 11:49:12;;;;;;;0.50;0.50;;;;;;;33.91;nan;95647.47;5009258;28;20193;-68
2022/07/18 11:51:44;;;;;;;0.33;0.33;;;;;;;33.91;nan;95647.47;5009609;28;20337;-67
2022/07/18 11:54:21;;;;;;;0.30;0.30;;;;;;;34.31;nan;95635.47;5008376;28;20292;-68
2022/07/18 11:56:51;;;;;;;0.50;0.50;;;;;;;33.86;nan;95639.69;5008549;28;20584;-69
2022/07/18 11:59:18;;;;;;;0.43;0.43;;;;;;;33.81;nan;95640.06;5008282;28;20208;-68
2022/07/18 12:01:52;;;;;;;0.23;0.23;;;;;;;34.48;nan;95630.06;5008432;28;20218;-70
2022/07/18 12:04:21;;;;;;;0.40;0.40;;;;;;;33.97;nan;95631.56;5024047;28;20671;-67
2022/07/18 12:07:14;;;;;;;1.30;0.63;;;;;;;34.17;nan;95630.81;5026968;28;20263;-68